Madeline — WDE3220 — position and weather

sailwx.info

Track history (hours):
 
Tides and Currents Weather Stations Pressure Air Temp Water Temp Dewpoint Dewpoint Depression Visibility Wind Speed Wind Dir Waves Ship Positions

Madeline

Owner: TUG MADELINE, LLC, NEW CASTLE, DE. More information available from US FCC via Universal Licensing System and Coast Guard Vessel Documentation Center.

Last reported at 2015-Feb-27 20:33 UTC. Time now 2015-Feb-27 21:08 UTC.
Position N 39°53' W 075°11'.

; draft 4.6 m.

Type: Tug. MMSI: 367335830.

Date/timePositionNaut miles runAvg speedWind from/ knotsBaromVisibWave heightAir tempDewpointWater temp
2015-Feb-27 20:33N 39°53' W 075°11'1 0.5
2015-Feb-27 19:33N 39°54' W 075°12'0 0.0
2015-Feb-27 18:33N 39°54' W 075°12'1 0.5
2015-Feb-27 17:33N 39°53' W 075°11'9 8.6
2015-Feb-27 16:33N 39°50' W 075°22'3 3.0
2015-Feb-27 15:33N 39°49' W 075°25'1 0.6
2015-Feb-27 14:33N 39°49' W 075°24'4 4.5
2015-Feb-27 13:34N 39°51' W 075°19'3 3.4
2015-Feb-27 12:34N 39°49' W 075°23'2 1.7
2015-Feb-27 11:33N 39°49' W 075°25'0 0.0
2015-Feb-27 10:33N 39°49' W 075°25'0 0.0
2015-Feb-27 09:33N 39°49' W 075°25'0 0.0
2015-Feb-27 08:34N 39°49' W 075°25'0 0.0
2015-Feb-27 07:33N 39°49' W 075°25'0 0.0
2015-Feb-27 06:34N 39°49' W 075°25'1 0.7
2015-Feb-27 05:33N 39°48' W 075°25'1111.3
2015-Feb-27 04:34N 39°53' W 075°12'4 4.0
2015-Feb-27 03:34N 39°51' W 075°16'0 0.0
2015-Feb-27 02:34N 39°51' W 075°16'2 1.8
2015-Feb-27 01:34N 39°51' W 075°18'2 2.1
2015-Feb-27 00:33N 39°51' W 075°16'0 0.0
2015-Feb-26 23:33N 39°51' W 075°16'0 0.0
2015-Feb-26 22:33N 39°51' W 075°16'0 0.0
2015-Feb-26 21:33N 39°51' W 075°16'4 4.2
2015-Feb-26 20:34N 39°53' W 075°11'0 0.0
2015-Feb-26 19:33N 39°53' W 075°11'0 0.0
2015-Feb-26 18:33N 39°53' W 075°11'0 0.0
2015-Feb-26 17:33N 39°53' W 075°11'0 0.0
2015-Feb-26 16:34N 39°53' W 075°11'0 0.0
2015-Feb-26 15:34N 39°53' W 075°11'3 3.1
2015-Feb-26 14:34N 39°55' W 075°08'2 1.5
2015-Feb-26 13:34N 39°56' W 075°08'7 6.6
2015-Feb-26 12:34N 39°51' W 075°14'2 1.6
2015-Feb-26 11:34N 39°51' W 075°16'0 0.0
2015-Feb-26 10:34N 39°51' W 075°16'0 0.0
2015-Feb-26 09:33N 39°51' W 075°16'0 0.0
2015-Feb-26 08:33N 39°51' W 075°16'4 4.1
2015-Feb-26 07:31N 39°53' W 075°11'0 0.0
2015-Feb-26 05:33N 39°53' W 075°11'2 2.3
2015-Feb-26 04:34N 39°54' W 075°08'0 0.0
2015-Feb-26 03:24N 39°54' W 075°08'0 0.0
2015-Feb-26 02:34N 39°54' W 075°08'3 3.3
2015-Feb-26 01:33N 39°57' W 075°08'3 2.9
2015-Feb-26 00:34N 39°59' W 075°05'7 7.2
2015-Feb-25 23:33N 39°53' W 075°10'5 4.7
2015-Feb-25 22:33N 39°51' W 075°16'0 0.0
2015-Feb-25 21:33N 39°51' W 075°16'0 0.0
2015-Feb-25 20:34N 39°51' W 075°16'0 0.0
2015-Feb-25 19:34N 39°51' W 075°16'0 0.0
2015-Feb-25 18:34N 39°51' W 075°16'0 0.0
2015-Feb-25 17:34N 39°51' W 075°16'0 0.0
2015-Feb-25 16:33N 39°51' W 075°16'0 0.0
2015-Feb-25 15:33N 39°51' W 075°16'0 0.0
2015-Feb-25 14:34N 39°51' W 075°16'0 0.2
2015-Feb-25 13:34N 39°51' W 075°16'6 5.6
2015-Feb-25 12:33N 39°53' W 075°09'1 1.5
2015-Feb-25 11:34N 39°53' W 075°11'0 0.1
2015-Feb-25 10:34N 39°53' W 075°11'0 0.0
2015-Feb-25 09:33N 39°53' W 075°11'0 0.0
2015-Feb-25 08:34N 39°53' W 075°11'0 0.0
2015-Feb-25 07:33N 39°53' W 075°11'0 0.0
2015-Feb-25 06:33N 39°53' W 075°11'0 0.0
2015-Feb-25 05:34N 39°53' W 075°11'3 2.6
2015-Feb-25 04:34N 39°54' W 075°08'7 6.6
2015-Feb-25 03:34N 39°60' W 075°04'2 2.1
2015-Feb-25 02:33N 39°59' W 075°06'3 3.1
2015-Feb-25 01:34N 39°56' W 075°08'5 5.2
2015-Feb-25 00:34N 39°52' W 075°13'1 1.3
2015-Feb-24 23:34N 39°52' W 075°14'4 4.2
2015-Feb-24 22:33N 39°51' W 075°19'3 2.9
2015-Feb-24 21:33N 39°51' W 075°16'1 1.5
2015-Feb-24 20:34N 39°52' W 075°14'2 2.4
2015-Feb-24 19:33N 39°54' W 075°12'0 0.0
2015-Feb-24 18:34N 39°54' W 075°12'1 1.1
2015-Feb-24 17:34N 39°53' W 075°11'0 0.0
2015-Feb-24 16:33N 39°53' W 075°11'0 0.0
2015-Feb-24 15:33N 39°53' W 075°11'0 0.0
2015-Feb-24 14:33N 39°53' W 075°11'0 0.0
2015-Feb-24 13:34N 39°53' W 075°11'0 0.4
2015-Feb-24 12:32N 39°53' W 075°11'0 0.0
2015-Feb-24 11:33N 39°53' W 075°11'0 0.4
2015-Feb-24 10:33N 39°53' W 075°11'0 0.0
2015-Feb-24 09:33N 39°53' W 075°11'0 0.0
2015-Feb-24 08:33N 39°53' W 075°11'0 0.0
2015-Feb-24 07:34N 39°53' W 075°11'0 0.0
2015-Feb-24 06:34N 39°53' W 075°11'0 0.0
2015-Feb-24 05:34N 39°53' W 075°11'0 0.0
2015-Feb-24 04:33N 39°53' W 075°11'0 0.0
2015-Feb-24 03:34N 39°53' W 075°11'0 0.0
2015-Feb-24 02:33N 39°53' W 075°11'0 0.0
2015-Feb-24 01:33N 39°53' W 075°11'3 2.7
2015-Feb-24 00:33N 39°54' W 075°08'0 0.0
2015-Feb-23 23:33N 39°54' W 075°08'0 0.4
2015-Feb-23 22:33N 39°54' W 075°08'3 2.6
2015-Feb-23 21:34N 39°53' W 075°11'0 0.0
2015-Feb-23 20:34N 39°53' W 075°11'0 0.0
2015-Feb-23 19:34N 39°53' W 075°11'0 0.0
2015-Feb-23 18:34N 39°53' W 075°11'0 0.0
2015-Feb-23 17:34N 39°53' W 075°11'0 0.0
2015-Feb-23 16:33N 39°53' W 075°11'0 0.0
2015-Feb-23 15:33N 39°53' W 075°11'0 0.0
2015-Feb-23 14:34N 39°53' W 075°11'3 2.8
2015-Feb-23 13:33N 39°54' W 075°08'6 5.6
2015-Feb-23 12:29N 39°60' W 075°04'3 2.5
2015-Feb-23 11:26N 39°58' W 075°07'3 1.5
2015-Feb-23 09:33N 39°56' W 075°08'3 3.3
2015-Feb-23 08:33N 39°53' W 075°11'0 0.0
2015-Feb-23 07:33N 39°53' W 075°11'0 0.0
2015-Feb-23 06:33N 39°53' W 075°11'0 0.0
2015-Feb-23 05:33N 39°53' W 075°11'0 0.0
2015-Feb-23 04:33N 39°53' W 075°11'0 0.0
2015-Feb-23 03:33N 39°53' W 075°11'0 0.0
2015-Feb-23 02:33N 39°53' W 075°11'0 0.0
2015-Feb-23 01:33N 39°53' W 075°11'0 0.0
2015-Feb-23 00:33N 39°53' W 075°11'0 0.0
2015-Feb-22 23:33N 39°53' W 075°11'0 0.2
2015-Feb-22 22:33N 39°53' W 075°11'2 2.5
2015-Feb-22 21:33N 39°51' W 075°14'0 0.1
2015-Feb-22 20:34N 39°51' W 075°14'2 1.8
2015-Feb-22 19:33N 39°53' W 075°12'1 0.8
2015-Feb-22 18:33N 39°53' W 075°11'0 0.0
2015-Feb-22 17:33N 39°53' W 075°11'1 1.3
2015-Feb-22 16:33N 39°52' W 075°12'3 3.1
2015-Feb-22 15:34N 39°51' W 075°16'5 4.7
2015-Feb-22 14:33N 39°53' W 075°10'0 0.3
2015-Feb-22 13:33N 39°53' W 075°11'0 0.3
2015-Feb-22 12:33N 39°53' W 075°11'0 0.0
2015-Feb-22 11:33N 39°53' W 075°11'0 0.0
2015-Feb-22 10:33N 39°53' W 075°11'0 0.0
2015-Feb-22 09:33N 39°53' W 075°11'0 0.0
2015-Feb-22 08:33N 39°53' W 075°11'0 0.0
2015-Feb-22 07:33N 39°53' W 075°11'1 0.6
2015-Feb-22 06:33N 39°53' W 075°12'4 3.6
2015-Feb-22 05:33N 39°51' W 075°16'0 0.0
2015-Feb-22 04:33N 39°51' W 075°16'3 3.4
2015-Feb-22 03:34N 39°51' W 075°20'5 4.6
2015-Feb-22 02:33N 39°48' W 075°25'0 0.0
2015-Feb-22 01:33N 39°48' W 075°25'0 0.0
2015-Feb-22 00:33N 39°48' W 075°25'0 0.2
2015-Feb-21 23:33N 39°48' W 075°25'0 0.0
2015-Feb-21 22:33N 39°48' W 075°25'1 0.8
2015-Feb-21 21:33N 39°48' W 075°24'  
Track history (hours):
 
Tides and Currents Weather Stations Pressure Air Temp Water Temp Dewpoint Dewpoint Depression Visibility Wind Speed Wind Dir Waves Ship Positions

Madeline

Owner: TUG MADELINE, LLC, NEW CASTLE, DE. More information available from US FCC via Universal Licensing System and Coast Guard Vessel Documentation Center.

Last reported at 2015-Feb-27 20:33 UTC. Time now 2015-Feb-27 21:08 UTC.
Position N 39°53' W 075°11'.

; draft 4.6 m.

Type: Tug. MMSI: 367335830.

Date/timePositionNaut miles runAvg speedWind from/ knotsBaromVisibWave heightAir tempDewpointWater temp
2015-Feb-27 20:33N 39°53' W 075°11'1 0.5
2015-Feb-27 19:33N 39°54' W 075°12'0 0.0
2015-Feb-27 18:33N 39°54' W 075°12'1 0.5
2015-Feb-27 17:33N 39°53' W 075°11'9 8.6
2015-Feb-27 16:33N 39°50' W 075°22'3 3.0
2015-Feb-27 15:33N 39°49' W 075°25'1 0.6
2015-Feb-27 14:33N 39°49' W 075°24'4 4.5
2015-Feb-27 13:34N 39°51' W 075°19'3 3.4
2015-Feb-27 12:34N 39°49' W 075°23'2 1.7
2015-Feb-27 11:33N 39°49' W 075°25'0 0.0
2015-Feb-27 10:33N 39°49' W 075°25'0 0.0
2015-Feb-27 09:33N 39°49' W 075°25'0 0.0
2015-Feb-27 08:34N 39°49' W 075°25'0 0.0
2015-Feb-27 07:33N 39°49' W 075°25'0 0.0
2015-Feb-27 06:34N 39°49' W 075°25'1 0.7
2015-Feb-27 05:33N 39°48' W 075°25'1111.3
2015-Feb-27 04:34N 39°53' W 075°12'4 4.0
2015-Feb-27 03:34N 39°51' W 075°16'0 0.0
2015-Feb-27 02:34N 39°51' W 075°16'2 1.8
2015-Feb-27 01:34N 39°51' W 075°18'2 2.1
2015-Feb-27 00:33N 39°51' W 075°16'0 0.0
2015-Feb-26 23:33N 39°51' W 075°16'0 0.0
2015-Feb-26 22:33N 39°51' W 075°16'0 0.0
2015-Feb-26 21:33N 39°51' W 075°16'4 4.2
2015-Feb-26 20:34N 39°53' W 075°11'0 0.0
2015-Feb-26 19:33N 39°53' W 075°11'0 0.0
2015-Feb-26 18:33N 39°53' W 075°11'0 0.0
2015-Feb-26 17:33N 39°53' W 075°11'0 0.0
2015-Feb-26 16:34N 39°53' W 075°11'0 0.0
2015-Feb-26 15:34N 39°53' W 075°11'3 3.1
2015-Feb-26 14:34N 39°55' W 075°08'2 1.5
2015-Feb-26 13:34N 39°56' W 075°08'7 6.6
2015-Feb-26 12:34N 39°51' W 075°14'2 1.6
2015-Feb-26 11:34N 39°51' W 075°16'0 0.0
2015-Feb-26 10:34N 39°51' W 075°16'0 0.0
2015-Feb-26 09:33N 39°51' W 075°16'0 0.0
2015-Feb-26 08:33N 39°51' W 075°16'4 4.1
2015-Feb-26 07:31N 39°53' W 075°11'0 0.0
2015-Feb-26 05:33N 39°53' W 075°11'2 2.3
2015-Feb-26 04:34N 39°54' W 075°08'0 0.0
2015-Feb-26 03:24N 39°54' W 075°08'0 0.0
2015-Feb-26 02:34N 39°54' W 075°08'3 3.3
2015-Feb-26 01:33N 39°57' W 075°08'3 2.9
2015-Feb-26 00:34N 39°59' W 075°05'7 7.2
2015-Feb-25 23:33N 39°53' W 075°10'5 4.7
2015-Feb-25 22:33N 39°51' W 075°16'0 0.0
2015-Feb-25 21:33N 39°51' W 075°16'0 0.0
2015-Feb-25 20:34N 39°51' W 075°16'0 0.0
2015-Feb-25 19:34N 39°51' W 075°16'0 0.0
2015-Feb-25 18:34N 39°51' W 075°16'0 0.0
2015-Feb-25 17:34N 39°51' W 075°16'0 0.0
2015-Feb-25 16:33N 39°51' W 075°16'0 0.0
2015-Feb-25 15:33N 39°51' W 075°16'0 0.0
2015-Feb-25 14:34N 39°51' W 075°16'0 0.2
2015-Feb-25 13:34N 39°51' W 075°16'6 5.6
2015-Feb-25 12:33N 39°53' W 075°09'1 1.5
2015-Feb-25 11:34N 39°53' W 075°11'0 0.1
2015-Feb-25 10:34N 39°53' W 075°11'0 0.0
2015-Feb-25 09:33N 39°53' W 075°11'0 0.0
2015-Feb-25 08:34N 39°53' W 075°11'0 0.0
2015-Feb-25 07:33N 39°53' W 075°11'0 0.0
2015-Feb-25 06:33N 39°53' W 075°11'0 0.0
2015-Feb-25 05:34N 39°53' W 075°11'3 2.6
2015-Feb-25 04:34N 39°54' W 075°08'7 6.6
2015-Feb-25 03:34N 39°60' W 075°04'2 2.1
2015-Feb-25 02:33N 39°59' W 075°06'3 3.1
2015-Feb-25 01:34N 39°56' W 075°08'5 5.2
2015-Feb-25 00:34N 39°52' W 075°13'1 1.3
2015-Feb-24 23:34N 39°52' W 075°14'4 4.2
2015-Feb-24 22:33N 39°51' W 075°19'3 2.9
2015-Feb-24 21:33N 39°51' W 075°16'1 1.5
2015-Feb-24 20:34N 39°52' W 075°14'2 2.4
2015-Feb-24 19:33N 39°54' W 075°12'0 0.0
2015-Feb-24 18:34N 39°54' W 075°12'1 1.1
2015-Feb-24 17:34N 39°53' W 075°11'0 0.0
2015-Feb-24 16:33N 39°53' W 075°11'0 0.0
2015-Feb-24 15:33N 39°53' W 075°11'0 0.0
2015-Feb-24 14:33N 39°53' W 075°11'0 0.0
2015-Feb-24 13:34N 39°53' W 075°11'0 0.4
2015-Feb-24 12:32N 39°53' W 075°11'0 0.0
2015-Feb-24 11:33N 39°53' W 075°11'0 0.4
2015-Feb-24 10:33N 39°53' W 075°11'0 0.0
2015-Feb-24 09:33N 39°53' W 075°11'0 0.0
2015-Feb-24 08:33N 39°53' W 075°11'0 0.0
2015-Feb-24 07:34N 39°53' W 075°11'0 0.0
2015-Feb-24 06:34N 39°53' W 075°11'0 0.0
2015-Feb-24 05:34N 39°53' W 075°11'0 0.0
2015-Feb-24 04:33N 39°53' W 075°11'0 0.0
2015-Feb-24 03:34N 39°53' W 075°11'0 0.0
2015-Feb-24 02:33N 39°53' W 075°11'0 0.0
2015-Feb-24 01:33N 39°53' W 075°11'3 2.7
2015-Feb-24 00:33N 39°54' W 075°08'0 0.0
2015-Feb-23 23:33N 39°54' W 075°08'0 0.4
2015-Feb-23 22:33N 39°54' W 075°08'3 2.6
2015-Feb-23 21:34N 39°53' W 075°11'0 0.0
2015-Feb-23 20:34N 39°53' W 075°11'0 0.0
2015-Feb-23 19:34N 39°53' W 075°11'0 0.0
2015-Feb-23 18:34N 39°53' W 075°11'0 0.0
2015-Feb-23 17:34N 39°53' W 075°11'0 0.0
2015-Feb-23 16:33N 39°53' W 075°11'0 0.0
2015-Feb-23 15:33N 39°53' W 075°11'0 0.0
2015-Feb-23 14:34N 39°53' W 075°11'3 2.8
2015-Feb-23 13:33N 39°54' W 075°08'6 5.6
2015-Feb-23 12:29N 39°60' W 075°04'3 2.5
2015-Feb-23 11:26N 39°58' W 075°07'3 1.5
2015-Feb-23 09:33N 39°56' W 075°08'3 3.3
2015-Feb-23 08:33N 39°53' W 075°11'0 0.0
2015-Feb-23 07:33N 39°53' W 075°11'0 0.0
2015-Feb-23 06:33N 39°53' W 075°11'0 0.0
2015-Feb-23 05:33N 39°53' W 075°11'0 0.0
2015-Feb-23 04:33N 39°53' W 075°11'0 0.0
2015-Feb-23 03:33N 39°53' W 075°11'0 0.0
2015-Feb-23 02:33N 39°53' W 075°11'0 0.0
2015-Feb-23 01:33N 39°53' W 075°11'0 0.0
2015-Feb-23 00:33N 39°53' W 075°11'0 0.0
2015-Feb-22 23:33N 39°53' W 075°11'0 0.2
2015-Feb-22 22:33N 39°53' W 075°11'2 2.5
2015-Feb-22 21:33N 39°51' W 075°14'0 0.1
2015-Feb-22 20:34N 39°51' W 075°14'2 1.8
2015-Feb-22 19:33N 39°53' W 075°12'1 0.8
2015-Feb-22 18:33N 39°53' W 075°11'0 0.0
2015-Feb-22 17:33N 39°53' W 075°11'1 1.3
2015-Feb-22 16:33N 39°52' W 075°12'3 3.1
2015-Feb-22 15:34N 39°51' W 075°16'5 4.7
2015-Feb-22 14:33N 39°53' W 075°10'0 0.3
2015-Feb-22 13:33N 39°53' W 075°11'0 0.3
2015-Feb-22 12:33N 39°53' W 075°11'0 0.0
2015-Feb-22 11:33N 39°53' W 075°11'0 0.0
2015-Feb-22 10:33N 39°53' W 075°11'0 0.0
2015-Feb-22 09:33N 39°53' W 075°11'0 0.0
2015-Feb-22 08:33N 39°53' W 075°11'0 0.0
2015-Feb-22 07:33N 39°53' W 075°11'1 0.6
2015-Feb-22 06:33N 39°53' W 075°12'4 3.6
2015-Feb-22 05:33N 39°51' W 075°16'0 0.0
2015-Feb-22 04:33N 39°51' W 075°16'3 3.4
2015-Feb-22 03:34N 39°51' W 075°20'5 4.6
2015-Feb-22 02:33N 39°48' W 075°25'0 0.0
2015-Feb-22 01:33N 39°48' W 075°25'0 0.0
2015-Feb-22 00:33N 39°48' W 075°25'0 0.2
2015-Feb-21 23:33N 39°48' W 075°25'0 0.0
2015-Feb-21 22:33N 39°48' W 075°25'1 0.8
2015-Feb-21 21:33N 39°48' W 075°24'  

Dump ship's entire track history